createdAt,value
2023-04-18T00:01:54.432Z,101883.50
2023-04-18T00:04:22.327Z,101883.06
2023-04-18T00:06:51.726Z,101878.66
2023-04-18T00:09:19.573Z,101880.06
2023-04-18T00:11:48.746Z,101883.38
2023-04-18T00:14:16.538Z,101876.09
2023-04-18T00:16:44.499Z,101873.09
2023-04-18T00:19:12.555Z,101882.09
2023-04-18T00:21:44.930Z,101882.22
2023-04-18T00:24:12.955Z,101873.38
2023-04-18T00:26:40.934Z,101865.53
2023-04-18T00:29:10.535Z,101876.22
2023-04-18T00:31:38.692Z,101861.34
2023-04-18T00:34:06.500Z,101877.22
2023-04-18T00:36:34.242Z,101885.50
2023-04-18T00:39:01.968Z,101875.50
2023-04-18T00:41:31.288Z,101876.53
2023-04-18T00:43:59.183Z,101874.38
2023-04-18T00:46:28.335Z,101882.94
2023-04-18T00:48:56.495Z,101871.53
2023-04-18T00:51:24.561Z,101871.94
2023-04-18T00:53:52.674Z,101871.50
2023-04-18T00:56:20.631Z,101871.94
2023-04-18T00:58:48.478Z,101877.22
2023-04-18T01:01:16.234Z,101867.94
2023-04-18T01:03:46.313Z,101872.78
2023-04-18T01:06:16.238Z,101871.25
2023-04-18T01:08:45.456Z,101873.66
2023-04-18T01:11:13.269Z,101864.66
2023-04-18T01:13:41.098Z,101866.94
2023-04-18T01:16:08.904Z,101869.78
2023-04-18T01:18:37.269Z,101872.66
2023-04-18T01:21:06.701Z,101874.63
2023-04-18T01:23:34.519Z,101872.94
2023-04-18T01:26:03.610Z,101871.06
2023-04-18T01:28:31.325Z,101872.09
2023-04-18T01:30:59.086Z,101859.53
2023-04-18T01:33:26.865Z,101868.53
2023-04-18T01:35:54.613Z,101872.66
2023-04-18T01:38:22.573Z,101868.38
2023-04-18T01:40:50.823Z,101861.78
2023-04-18T01:43:20.078Z,101879.09
2023-04-18T01:45:47.814Z,101876.38
2023-04-18T01:48:15.558Z,101873.19
2023-04-18T01:50:43.322Z,101872.75
2023-04-18T17:28:24.983Z,101956.31
2023-04-18T17:31:14.510Z,101961.94
2023-04-18T17:33:42.896Z,101956.50
2023-04-18T17:36:11.342Z,101957.50
2023-04-18T17:38:40.579Z,101957.66
2023-04-18T17:41:08.507Z,101953.03
2023-04-18T17:43:37.784Z,101948.97
2023-04-18T17:46:06.070Z,101954.06
2023-04-18T17:48:34.115Z,101950.31
2023-04-18T17:51:02.256Z,101938.34
2023-04-18T17:53:32.153Z,101945.63
2023-04-18T17:56:00.666Z,101940.38
2023-04-18T17:58:29.288Z,101946.22
2023-04-18T18:00:58.594Z,101955.25
2023-04-18T18:03:26.703Z,101950.19
2023-04-18T18:05:55.760Z,101956.63
2023-04-18T18:08:24.268Z,101965.84
2023-04-18T18:10:52.130Z,101961.09
2023-04-18T18:13:19.987Z,101962.59
2023-04-18T18:15:47.854Z,101968.31
2023-04-18T18:18:29.704Z,101973.16
2023-04-18T18:20:58.170Z,101968.50
2023-04-18T18:23:28.719Z,101972.88
2023-04-18T18:25:56.574Z,101975.41
2023-04-18T18:28:24.448Z,101973.84
2023-04-18T18:30:52.516Z,101980.88
2023-04-18T18:33:20.466Z,101977.28
2023-04-18T18:35:49.858Z,101973.53
2023-04-18T18:38:17.813Z,101981.59
2023-04-18T18:40:45.732Z,101978.34
2023-04-18T18:43:13.769Z,101984.56
2023-04-18T18:45:41.680Z,101989.56
2023-04-18T18:48:10.076Z,101994.50
2023-04-18T18:50:41.816Z,101989.28
2023-04-18T18:53:11.188Z,101992.59
2023-04-18T18:55:39.324Z,101995.66
2023-04-18T18:58:09.701Z,101991.78
2023-04-18T19:00:37.654Z,101989.38
2023-04-18T19:03:05.702Z,101993.44
2023-04-18T19:05:34.809Z,101997.88
2023-04-18T19:08:04.890Z,101998.38
2023-04-18T19:10:34.375Z,102005.31
2023-04-18T19:13:02.370Z,101985.22
2023-04-18T19:15:30.724Z,102000.06
2023-04-18T19:17:58.794Z,101998.69
2023-04-18T19:20:28.804Z,102001.75
2023-04-18T19:22:57.313Z,102005.19
2023-04-18T19:25:25.984Z,102001.75
2023-04-18T19:27:55.310Z,102005.19
2023-04-18T19:30:24.407Z,102007.53
2023-04-18T19:32:52.469Z,102006.25
2023-04-18T19:35:21.136Z,102009.47
2023-04-18T19:37:49.071Z,102004.53
2023-04-18T19:40:17.477Z,102000.91
2023-04-18T19:42:46.466Z,102005.63
2023-04-18T19:45:16.117Z,102009.94
2023-04-18T19:47:45.016Z,102003.94
2023-04-18T19:50:13.018Z,102008.25
2023-04-18T19:52:41.172Z,101993.78
2023-04-18T19:55:10.102Z,102004.38
2023-04-18T19:57:40.018Z,102000.63
2023-04-18T20:00:09.998Z,101999.47
2023-04-18T20:02:42.627Z,102007.00
2023-04-18T20:05:11.418Z,102003.63
2023-04-18T20:07:39.705Z,101999.25
2023-04-18T20:10:09.496Z,101995.88
2023-04-18T20:12:37.591Z,101995.13
2023-04-18T20:15:06.794Z,101995.88
2023-04-18T20:17:35.237Z,102005.31
2023-04-18T20:20:08.180Z,102004.81
2023-04-18T20:22:37.120Z,102006.88
2023-04-18T20:25:06.787Z,102008.63
2023-04-18T20:27:34.936Z,102012.69
2023-04-18T20:30:03.002Z,101998.34
2023-04-18T20:32:32.153Z,102003.44
2023-04-18T20:35:00.265Z,102001.72
2023-04-18T20:37:29.694Z,101995.78
2023-04-18T20:39:58.700Z,101999.47
2023-04-18T20:42:27.444Z,101985.94
2023-04-18T20:44:55.404Z,101999.59
2023-04-18T20:47:23.526Z,101993.88
2023-04-18T20:49:51.485Z,101994.50
2023-04-18T20:52:19.326Z,102001.69
2023-04-18T20:54:48.555Z,101999.25
2023-04-18T20:57:16.450Z,101994.34
2023-04-18T20:59:44.303Z,102005.75
2023-04-18T21:02:12.287Z,102002.63
2023-04-18T21:04:40.674Z,101998.06
2023-04-18T21:07:08.729Z,102001.84
2023-04-18T21:09:37.384Z,102003.53
2023-04-18T21:12:07.120Z,102012.06
2023-04-18T21:14:35.038Z,101999.56
2023-04-18T21:17:02.940Z,102008.31
2023-04-18T21:19:30.807Z,102018.25
2023-04-18T21:21:58.742Z,102013.31
2023-04-18T21:24:26.569Z,102014.97
2023-04-18T21:26:54.492Z,102014.78
2023-04-18T21:29:23.876Z,101994.63
2023-04-18T21:31:51.816Z,102011.16
2023-04-18T21:34:20.105Z,102008.97
2023-04-18T21:36:47.975Z,102003.66
2023-04-18T21:39:15.940Z,102001.44
2023-04-18T21:41:43.929Z,102005.69
2023-04-18T21:44:11.995Z,102011.81
2023-04-18T21:46:41.186Z,102001.38
2023-04-18T21:49:09.068Z,102017.63
2023-04-18T21:51:37.114Z,102001.78
2023-04-18T21:54:07.127Z,102008.41
2023-04-18T21:56:34.961Z,102006.19
2023-04-18T21:59:02.788Z,102017.22
2023-04-18T22:01:30.727Z,102007.84
2023-04-18T22:04:00.300Z,102016.72
2023-04-18T22:06:28.313Z,102003.28
2023-04-18T22:08:56.274Z,102008.00
2023-04-18T22:11:24.428Z,102004.31
2023-04-18T22:13:54.157Z,102003.78
2023-04-18T22:16:22.830Z,102010.38
2023-04-18T22:18:50.859Z,102006.13
2023-04-18T22:21:20.061Z,102005.91
2023-04-18T22:23:47.921Z,102001.16
2023-04-18T22:26:15.842Z,102000.09
2023-04-18T22:28:43.733Z,102007.56
2023-04-18T22:31:11.605Z,102010.38
2023-04-18T22:33:39.466Z,102008.63
2023-04-18T22:36:07.555Z,102007.78
2023-04-18T22:38:36.705Z,102005.06
2023-04-18T22:41:04.615Z,102011.31
2023-04-18T22:43:33.620Z,102009.31
2023-04-18T22:46:01.602Z,102012.81
2023-04-18T22:48:30.005Z,102023.81
2023-04-18T22:50:57.969Z,102006.50
2023-04-18T22:53:25.844Z,102017.41
2023-04-18T22:55:55.004Z,102013.78
2023-04-18T22:58:22.837Z,102029.97
2023-04-18T23:00:50.796Z,102032.63
2023-04-18T23:03:18.860Z,102027.69
2023-04-18T23:05:46.892Z,102038.47
2023-04-18T23:08:14.784Z,102026.72
2023-04-18T23:10:42.620Z,102023.50
2023-04-18T23:13:11.832Z,102028.94
2023-04-18T23:15:39.750Z,102027.66
2023-04-18T23:18:07.688Z,102019.84
2023-04-18T23:20:36.342Z,102027.69
2023-04-18T23:23:04.359Z,102016.66
2023-04-18T23:25:33.502Z,102013.78
2023-04-18T23:28:01.404Z,102025.69
2023-04-18T23:30:30.804Z,102024.44
2023-04-18T23:32:58.738Z,102023.44
2023-04-18T23:35:26.715Z,102025.59
2023-04-18T23:37:54.514Z,102031.78
2023-04-18T23:40:22.930Z,102029.03
2023-04-18T23:42:50.788Z,102034.88
2023-04-18T23:45:18.914Z,102030.94
2023-04-18T23:47:48.187Z,102031.03
2023-04-18T23:50:16.125Z,102026.78
2023-04-18T23:52:43.964Z,102019.34
2023-04-18T23:55:11.807Z,102025.34
2023-04-18T23:57:39.630Z,102023.81
